createdAt,value
2018-03-01T00:01:46.849Z,-5.57
2018-03-01T00:04:15.987Z,-5.54
2018-03-01T00:06:44.279Z,-5.55
2018-03-01T00:09:12.566Z,-5.48
2018-03-01T00:11:40.821Z,-5.76
2018-03-01T00:14:09.112Z,-5.67
2018-03-01T00:16:37.376Z,-5.56
2018-03-01T00:19:05.643Z,-5.55
2018-03-01T00:21:33.966Z,-5.56
2018-03-01T00:24:03.006Z,-5.72
2018-03-01T00:26:31.444Z,-5.44
2018-03-01T00:29:00.534Z,-5.55
2018-03-01T00:31:29.597Z,-5.50
2018-03-01T00:33:57.957Z,-5.56
2018-03-01T00:36:27.085Z,-5.87
2018-03-01T00:38:55.348Z,-5.85
2018-03-01T00:41:23.638Z,-5.77
2018-03-01T00:43:52.679Z,-5.86
2018-03-01T00:46:21.032Z,-5.79
2018-03-01T00:48:49.336Z,-5.74
2018-03-01T00:51:17.706Z,-5.88
2018-03-01T00:53:45.989Z,-5.74
2018-03-01T00:56:14.269Z,-5.67
2018-03-01T00:58:42.574Z,-5.69
2018-03-01T01:01:10.854Z,-5.80
2018-03-01T01:03:39.914Z,-5.91
2018-03-01T01:06:08.261Z,-5.88
2018-03-01T01:08:36.555Z,-5.82
2018-03-01T01:11:04.887Z,-5.77
2018-03-01T01:13:33.934Z,-5.74
2018-03-01T01:16:02.216Z,-5.76
2018-03-01T01:18:31.966Z,-5.73
2018-03-01T01:21:01.021Z,-5.89
2018-03-01T01:23:29.312Z,-5.82
2018-03-01T01:25:57.660Z,-5.95
2018-03-01T01:28:26.043Z,-5.99
2018-03-01T01:30:54.325Z,-5.80
2018-03-01T01:33:22.646Z,-5.92
2018-03-01T01:35:51.778Z,-5.84
2018-03-01T01:38:20.082Z,-5.77
2018-03-01T01:40:48.421Z,-5.83
2018-03-01T01:43:17.448Z,-5.80
2018-03-01T01:45:45.715Z,-5.79
2018-03-01T01:48:14.002Z,-5.80
2018-03-01T01:51:00.094Z,-5.83
2018-03-01T01:53:28.369Z,-5.84
2018-03-01T01:55:56.639Z,-5.86
2018-03-01T01:58:24.891Z,-5.72
2018-03-01T02:00:53.229Z,-5.75
2018-03-01T02:03:22.262Z,-5.68
2018-03-01T02:05:50.530Z,-5.62
2018-03-01T02:08:18.830Z,-5.63
2018-03-01T02:10:47.103Z,-5.61
2018-03-01T02:13:15.383Z,-5.60
2018-03-01T02:15:44.377Z,-5.52
2018-03-01T02:18:12.670Z,-5.65
2018-03-01T02:20:41.734Z,-5.68
2018-03-01T02:23:10.046Z,-5.60
2018-03-01T02:25:38.327Z,-5.57
2018-03-01T02:28:07.352Z,-5.59
2018-03-01T02:30:35.644Z,-5.71
2018-03-01T02:33:29.475Z,-5.64
2018-03-01T02:35:58.551Z,-5.69
2018-03-01T02:38:26.815Z,-5.65
2018-03-01T02:40:55.129Z,-5.65
2018-03-01T02:43:23.508Z,-5.66
2018-03-01T02:45:51.783Z,-5.70
2018-03-01T02:48:20.811Z,-5.70
2018-03-01T02:50:49.099Z,-5.69
2018-03-01T02:53:17.371Z,-5.72
2018-03-01T02:55:45.620Z,-5.74
2018-03-01T02:58:14.722Z,-5.69
2018-03-01T03:00:43.739Z,-5.69
2018-03-01T03:03:12.113Z,-5.71
2018-03-01T03:05:40.399Z,-5.77
2018-03-01T03:08:08.681Z,-5.68
2018-03-01T03:10:37.736Z,-5.67
2018-03-01T03:13:05.997Z,-5.74
2018-03-01T03:15:35.360Z,-5.82
2018-03-01T03:18:04.501Z,-5.76
2018-03-01T03:20:32.808Z,-5.68
2018-03-01T03:23:01.055Z,-5.81
2018-03-01T03:25:29.357Z,-5.63
2018-03-01T03:27:57.671Z,-5.64
2018-03-01T03:30:26.698Z,-5.62
2018-03-01T03:32:54.982Z,-5.61
2018-03-01T03:35:23.237Z,-5.58
2018-03-01T03:37:51.513Z,-5.69
2018-03-01T03:40:20.001Z,-5.55
2018-03-01T03:42:48.267Z,-5.50
2018-03-01T03:45:16.528Z,-5.65
2018-03-01T03:47:44.895Z,-5.47
2018-03-01T03:50:13.181Z,-5.61
2018-03-01T03:52:41.710Z,-5.59
2018-03-01T03:55:10.134Z,-5.57
2018-03-01T03:57:38.434Z,-5.55
2018-03-01T04:00:06.842Z,-5.60
2018-03-01T04:02:35.104Z,-5.55
2018-03-01T04:05:03.415Z,-5.70
2018-03-01T04:07:32.458Z,-5.60
2018-03-01T04:10:00.728Z,-5.52
2018-03-01T04:12:29.006Z,-5.50
2018-03-01T04:14:57.280Z,-5.54
2018-03-01T04:17:25.618Z,-5.58
2018-03-01T04:19:54.667Z,-5.59
2018-03-01T04:22:22.928Z,-5.50
2018-03-01T04:24:51.205Z,-5.56
2018-03-01T04:27:19.476Z,-5.55
2018-03-01T04:29:47.831Z,-5.45
2018-03-01T04:32:16.125Z,-5.47
2018-03-01T04:34:44.413Z,-5.58
2018-03-01T04:37:12.678Z,-5.47
2018-03-01T04:39:40.975Z,-5.57
2018-03-01T04:42:09.252Z,-5.51
2018-03-01T04:44:37.536Z,-5.51
2018-03-01T04:47:05.797Z,-5.57
2018-03-01T04:49:34.354Z,-5.59
2018-03-01T04:52:02.647Z,-5.63
2018-03-01T04:54:30.923Z,-5.58
2018-03-01T04:56:59.287Z,-5.44
2018-03-01T04:59:27.556Z,-5.57
2018-03-01T05:01:55.875Z,-5.49
2018-03-01T05:04:24.152Z,-5.53
2018-03-01T05:06:52.455Z,-5.63
2018-03-01T05:09:20.730Z,-5.81
2018-03-01T05:11:49.011Z,-5.71
2018-03-01T05:14:17.292Z,-5.55
2018-03-01T05:16:45.807Z,-5.63
2018-03-01T05:19:14.271Z,-5.65
2018-03-01T05:21:42.587Z,-5.70
2018-03-01T05:24:10.896Z,-5.64
2018-03-01T05:26:39.290Z,-5.83
2018-03-01T05:29:07.864Z,-5.71
2018-03-01T05:31:36.162Z,-5.71
2018-03-01T05:34:04.789Z,-5.81
2018-03-01T05:36:33.323Z,-5.70
2018-03-01T05:39:01.862Z,-5.71
2018-03-01T05:41:30.946Z,-5.71
2018-03-01T05:43:59.984Z,-5.69
2018-03-01T05:46:28.287Z,-5.72
2018-03-01T05:48:56.555Z,-5.75
2018-03-01T05:51:24.823Z,-5.74
2018-03-01T05:53:53.086Z,-5.59
2018-03-01T05:56:21.383Z,-5.85
2018-03-01T05:58:50.142Z,-5.86
2018-03-01T06:01:18.439Z,-5.86
2018-03-01T06:03:46.704Z,-5.98
2018-03-01T06:06:14.980Z,-5.69
2018-03-01T06:08:43.327Z,-5.78
2018-03-01T06:11:11.604Z,-5.69
2018-03-01T06:13:40.656Z,-5.68
2018-03-01T06:16:08.929Z,-5.82
2018-03-01T06:18:37.230Z,-5.71
2018-03-01T06:21:06.260Z,-5.69
2018-03-01T06:23:34.530Z,-5.63
2018-03-01T06:26:02.817Z,-5.59
2018-03-01T06:28:31.122Z,-5.63
2018-03-01T06:30:59.639Z,-5.63
2018-03-01T06:33:27.946Z,-5.67
2018-03-01T06:35:56.378Z,-5.77
2018-03-01T06:38:25.409Z,-5.68
2018-03-01T06:40:53.872Z,-5.70
2018-03-01T06:43:22.979Z,-5.64
2018-03-01T06:45:51.308Z,-5.51
2018-03-01T06:48:19.576Z,-5.62
2018-03-01T06:50:47.992Z,-5.67
2018-03-01T06:53:16.308Z,-5.70
2018-03-01T06:55:44.772Z,-5.45
2018-03-01T06:58:13.886Z,-5.28
2018-03-01T07:00:42.168Z,-5.11
2018-03-01T07:03:10.465Z,-5.20
2018-03-01T07:05:38.738Z,-5.14
2018-03-01T07:08:07.028Z,-5.25
2018-03-01T07:10:36.118Z,-5.43
2018-03-01T07:13:04.408Z,-5.30
2018-03-01T07:15:33.451Z,-5.22
2018-03-01T07:18:01.708Z,-5.24
2018-03-01T07:20:30.014Z,-5.19
2018-03-01T07:22:58.396Z,-4.93
2018-03-01T07:25:26.678Z,-4.95
2018-03-01T07:27:54.954Z,-5.07
2018-03-01T07:30:23.380Z,-5.36
2018-03-01T07:32:51.777Z,-5.17
2018-03-01T07:35:20.135Z,-5.11
2018-03-01T07:37:48.438Z,-5.17
2018-03-01T07:40:16.911Z,-5.05
2018-03-01T07:42:45.183Z,-4.99
2018-03-01T07:45:13.496Z,-4.91
2018-03-01T07:47:41.900Z,-4.57
2018-03-01T07:50:10.154Z,-4.76
2018-03-01T07:52:38.457Z,-4.79
2018-03-01T07:55:06.731Z,-4.80
2018-03-01T07:57:35.138Z,-5.14
2018-03-01T08:00:03.495Z,-4.82
2018-03-01T08:02:32.286Z,-4.89
2018-03-01T08:05:00.809Z,-4.70
2018-03-01T08:07:29.097Z,-4.43
2018-03-01T08:09:57.411Z,-4.48
2018-03-01T08:12:26.473Z,-4.68
2018-03-01T08:14:56.338Z,-4.52
2018-03-01T08:17:24.606Z,-4.81
2018-03-01T08:19:52.883Z,-4.82
2018-03-01T08:22:21.212Z,-4.84
2018-03-01T08:24:49.503Z,-4.60
2018-03-01T08:27:17.793Z,-4.30
2018-03-01T08:29:46.239Z,-4.23
2018-03-01T08:32:19.814Z,-4.26
2018-03-01T08:34:48.412Z,-4.44
2018-03-01T08:37:16.853Z,-4.19
2018-03-01T08:39:45.116Z,-4.49
2018-03-01T08:42:13.391Z,-4.41
2018-03-01T08:44:41.846Z,-4.27
2018-03-01T08:47:10.143Z,-3.92
2018-03-01T08:49:38.552Z,-3.78
2018-03-01T08:52:06.810Z,-3.85
2018-03-01T08:54:35.168Z,-3.60
2018-03-01T08:57:03.458Z,-3.40
2018-03-01T08:59:31.762Z,-3.38
2018-03-01T09:02:00.028Z,-3.53
2018-03-01T09:04:28.288Z,-3.51
2018-03-01T09:06:56.588Z,-3.25
2018-03-01T09:09:26.391Z,-2.97
2018-03-01T09:11:54.911Z,-2.35
2018-03-01T09:14:23.979Z,-1.80
2018-03-01T09:16:52.274Z,-1.60
2018-03-01T09:19:21.350Z,-1.36
2018-03-01T09:21:49.586Z,-1.47
2018-03-01T09:24:17.919Z,-1.32
2018-03-01T09:26:46.988Z,-1.37
2018-03-01T09:29:15.259Z,-1.62
2018-03-01T09:31:43.523Z,-1.32
2018-03-01T09:34:11.880Z,-1.02
2018-03-01T09:36:40.135Z,-0.58
2018-03-01T09:39:08.450Z,-0.02
2018-03-01T09:41:36.724Z,0.25
2018-03-01T09:44:05.050Z,0.04
2018-03-01T09:46:33.331Z,0.73
2018-03-01T09:49:01.705Z,1.64
2018-03-01T09:51:30.036Z,1.52
2018-03-01T09:53:58.378Z,1.83
2018-03-01T09:56:26.646Z,1.68
2018-03-01T09:58:54.970Z,1.51
2018-03-01T10:01:23.499Z,0.37
2018-03-01T10:03:51.742Z,-0.27
2018-03-01T10:06:19.963Z,-1.32
2018-03-01T10:08:48.236Z,-1.10
2018-03-01T10:11:16.487Z,-1.31
2018-03-01T10:13:44.777Z,-1.69
2018-03-01T10:16:13.169Z,-1.40
2018-03-01T10:18:41.526Z,-1.75
2018-03-01T10:21:09.776Z,-1.58
2018-03-01T10:23:38.881Z,-1.60
2018-03-01T10:26:07.161Z,-1.91
2018-03-01T10:28:39.467Z,-1.37
2018-03-01T10:31:07.816Z,-1.09
2018-03-01T10:33:42.512Z,-0.49
2018-03-01T10:36:10.786Z,-0.44
2018-03-01T10:38:39.854Z,-0.92
2018-03-01T10:41:08.301Z,-0.77
2018-03-01T10:43:36.559Z,-1.01
2018-03-01T10:46:04.877Z,-1.14
2018-03-01T10:48:33.135Z,-0.95
2018-03-01T10:51:01.404Z,-0.83
2018-03-01T10:53:29.679Z,-0.55
2018-03-01T10:55:57.994Z,-0.77
2018-03-01T10:58:27.857Z,-0.61
2018-03-01T11:01:00.144Z,-0.05
2018-03-01T11:03:28.422Z,-0.59
2018-03-01T11:05:56.679Z,-0.67
2018-03-01T11:08:24.958Z,-0.59
2018-03-01T11:10:53.217Z,-0.27
2018-03-01T11:13:21.501Z,0.11
2018-03-01T11:15:50.034Z,0.27
2018-03-01T11:18:18.323Z,-0.10
2018-03-01T11:20:47.483Z,-0.43
2018-03-01T11:23:15.886Z,-0.19
2018-03-01T11:25:44.175Z,0.04
2018-03-01T11:28:12.575Z,0.20
2018-03-01T11:30:40.883Z,0.21
2018-03-01T11:33:09.138Z,0.10
2018-03-01T11:35:37.426Z,-0.19
2018-03-01T11:38:05.689Z,-0.34
2018-03-01T11:40:33.987Z,-0.13
2018-03-01T11:43:03.130Z,-0.47
2018-03-01T11:45:31.434Z,-0.07
2018-03-01T11:47:59.834Z,-0.16
2018-03-01T11:50:28.106Z,-0.20
2018-03-01T11:52:56.473Z,-0.54
2018-03-01T11:55:24.895Z,0.04
2018-03-01T11:57:53.170Z,0.29
2018-03-01T12:00:21.437Z,0.55
2018-03-01T12:02:49.794Z,-0.20
2018-03-01T12:05:18.092Z,0.14
2018-03-01T12:07:46.387Z,0.61
2018-03-01T12:10:15.515Z,0.47
2018-03-01T12:12:43.793Z,1.00
2018-03-01T12:15:12.279Z,1.67
2018-03-01T12:17:40.649Z,1.33
2018-03-01T12:20:08.932Z,0.89
2018-03-01T12:22:37.179Z,0.84
2018-03-01T12:25:06.407Z,1.59
2018-03-01T12:27:34.649Z,1.94
2018-03-01T12:30:03.132Z,1.92
2018-03-01T12:32:31.404Z,2.81
2018-03-01T12:34:59.676Z,1.96
2018-03-01T12:37:28.045Z,1.81
2018-03-01T12:39:57.582Z,2.01
2018-03-01T12:42:25.988Z,2.34
2018-03-01T12:44:54.407Z,2.61
2018-03-01T12:47:22.709Z,2.34
2018-03-01T12:49:50.988Z,2.44
2018-03-01T12:52:19.265Z,2.74
2018-03-01T12:54:47.539Z,2.74
2018-03-01T12:57:15.829Z,2.57
2018-03-01T12:59:44.111Z,3.52
2018-03-01T13:02:12.439Z,3.21
2018-03-01T13:04:51.570Z,3.49
2018-03-01T13:07:19.846Z,3.79
2018-03-01T13:09:48.150Z,3.29
2018-03-01T13:12:16.438Z,3.24
2018-03-01T13:14:44.695Z,3.30
2018-03-01T13:17:12.990Z,3.30
2018-03-01T13:19:41.295Z,3.34
2018-03-01T13:22:09.555Z,3.62
2018-03-01T13:24:37.804Z,3.55
2018-03-01T13:27:06.183Z,3.37
2018-03-01T13:29:34.447Z,3.16
2018-03-01T13:32:04.085Z,3.07
2018-03-01T13:34:51.424Z,3.03
2018-03-01T13:37:19.709Z,3.12
2018-03-01T13:39:47.987Z,3.60
2018-03-01T13:42:17.467Z,3.42
2018-03-01T13:44:45.717Z,4.09
2018-03-01T13:47:18.179Z,4.34
2018-03-01T13:49:47.566Z,3.51
2018-03-01T13:52:16.177Z,3.16
2018-03-01T13:54:44.547Z,3.55
2018-03-01T13:57:12.840Z,3.82
2018-03-01T13:59:41.156Z,4.09
2018-03-01T14:02:09.454Z,3.84
2018-03-01T14:04:37.804Z,4.67
2018-03-01T14:10:15.081Z,4.55
2018-03-01T14:12:43.627Z,4.58
2018-03-01T14:15:14.048Z,4.30
2018-03-01T14:17:47.900Z,4.09
2018-03-01T14:20:26.111Z,3.12
2018-03-01T14:23:12.007Z,3.26
2018-03-01T14:25:41.073Z,3.17
2018-03-01T14:28:13.827Z,3.03
2018-03-01T14:30:42.364Z,2.85
2018-03-01T14:33:12.211Z,2.86
2018-03-01T14:35:40.812Z,3.10
2018-03-01T14:38:09.146Z,2.93
2018-03-01T14:40:38.275Z,2.68
2018-03-01T14:43:06.835Z,3.14
2018-03-01T14:45:36.476Z,2.69
2018-03-01T14:48:05.456Z,2.79
2018-03-01T14:50:34.110Z,2.61
2018-03-01T14:53:02.978Z,2.35
2018-03-01T14:55:31.615Z,2.65
2018-03-01T14:58:00.344Z,2.68
2018-03-01T15:00:30.882Z,2.73
2018-03-01T15:03:00.166Z,2.64
2018-03-01T15:05:29.536Z,2.51
2018-03-01T15:07:58.742Z,2.47
2018-03-01T15:10:27.102Z,2.49
2018-03-01T15:12:56.194Z,2.48
2018-03-01T15:15:24.447Z,2.42
2018-03-01T15:17:53.775Z,2.42
2018-03-01T15:20:22.212Z,1.95
2018-03-01T15:22:50.647Z,2.02
2018-03-01T15:25:20.125Z,2.22
2018-03-01T15:27:48.428Z,2.35
2018-03-01T15:30:17.565Z,2.26
2018-03-01T15:32:45.886Z,2.35
2018-03-01T15:35:14.914Z,2.30
2018-03-01T15:37:43.411Z,2.21
2018-03-01T15:40:12.506Z,2.33
2018-03-01T15:42:40.934Z,2.28
2018-03-01T15:45:09.348Z,2.20
2018-03-01T15:47:37.628Z,2.13
2018-03-01T15:50:06.680Z,2.17
2018-03-01T15:52:35.005Z,2.13
2018-03-01T15:55:04.252Z,2.10
2018-03-01T15:57:34.108Z,2.16
2018-03-01T16:00:02.798Z,2.23
2018-03-01T16:02:33.076Z,2.16
2018-03-01T16:05:03.377Z,2.22
2018-03-01T16:07:32.673Z,2.07
2018-03-01T16:10:01.322Z,2.03
2018-03-01T16:12:31.297Z,2.06
2018-03-01T16:15:00.438Z,2.06
2018-03-01T16:17:29.728Z,1.97
2018-03-01T16:19:58.182Z,1.92
2018-03-01T16:22:27.297Z,2.04
2018-03-01T16:24:55.747Z,1.88
2018-03-01T16:27:24.322Z,1.83
2018-03-01T16:29:52.758Z,1.98
2018-03-01T16:32:21.157Z,1.88
2018-03-01T16:34:51.636Z,1.82
2018-03-01T16:37:20.090Z,1.81
2018-03-01T16:39:50.087Z,1.72
2018-03-01T16:42:18.412Z,1.68
2018-03-01T16:44:47.504Z,1.66
2018-03-01T16:47:16.540Z,1.67
2018-03-01T16:49:45.450Z,1.66
2018-03-01T16:52:14.060Z,1.61
2018-03-01T16:54:43.133Z,1.61
2018-03-01T16:57:11.504Z,1.60
2018-03-01T16:59:39.832Z,1.59
2018-03-01T17:02:08.091Z,1.60
2018-03-01T17:04:37.291Z,1.49
2018-03-01T17:07:06.723Z,1.51
2018-03-01T17:09:35.722Z,1.52
2018-03-01T17:12:04.749Z,1.64
2018-03-01T17:14:33.033Z,1.51
2018-03-01T17:17:01.315Z,1.64
2018-03-01T17:19:29.855Z,1.56
2018-03-01T17:21:58.108Z,1.45
2018-03-01T17:24:26.597Z,1.43
2018-03-01T17:26:54.995Z,1.44
2018-03-01T17:29:23.400Z,1.51
2018-03-01T17:31:51.887Z,1.33
2018-03-01T17:34:21.732Z,1.34
2018-03-01T17:36:50.029Z,1.40
2018-03-01T17:39:18.317Z,1.48
2018-03-01T17:41:47.337Z,1.40
2018-03-01T17:44:16.385Z,1.38
2018-03-01T17:46:44.872Z,1.37
2018-03-01T17:49:13.710Z,1.34
2018-03-01T17:51:42.770Z,1.33
2018-03-01T17:54:11.184Z,1.32
2018-03-01T17:56:39.487Z,1.38
2018-03-01T17:59:07.771Z,1.38
2018-03-01T18:01:36.716Z,1.33
2018-03-01T18:04:06.612Z,1.30
2018-03-01T18:06:34.880Z,1.28
2018-03-01T18:09:03.159Z,1.33
2018-03-01T18:11:31.925Z,1.24
2018-03-01T18:14:01.875Z,1.25
2018-03-01T18:16:30.166Z,1.28
2018-03-01T18:18:59.406Z,1.32
2018-03-01T18:21:27.738Z,1.21
2018-03-01T18:23:56.835Z,1.25
2018-03-01T18:26:25.984Z,1.27
2018-03-01T18:28:54.567Z,1.25
2018-03-01T18:31:23.718Z,1.23
2018-03-01T18:33:52.000Z,1.24
2018-03-01T18:36:20.304Z,1.21
2018-03-01T18:38:48.641Z,1.22
2018-03-01T18:41:18.088Z,1.16
2018-03-01T18:43:46.492Z,1.17
2018-03-01T18:46:15.362Z,1.14
2018-03-01T18:48:44.250Z,1.16
2018-03-01T18:51:13.846Z,1.20
2018-03-01T18:53:43.225Z,1.29
2018-03-01T18:56:12.178Z,1.28
2018-03-01T18:58:41.578Z,1.20
2018-03-01T19:01:10.338Z,1.15
2018-03-01T19:03:38.944Z,1.13
2018-03-01T19:06:08.660Z,1.12
2018-03-01T19:08:37.480Z,1.12
2018-03-01T19:11:06.162Z,1.07
2018-03-01T19:13:34.842Z,1.01
2018-03-01T19:16:03.599Z,1.07
2018-03-01T19:18:33.226Z,1.08
2018-03-01T19:21:02.481Z,1.12
2018-03-01T19:23:31.395Z,1.12
2018-03-01T19:26:00.003Z,1.11
2018-03-01T19:28:29.512Z,1.12
2018-03-01T19:31:01.876Z,1.09
2018-03-01T19:33:32.818Z,1.01
2018-03-01T19:36:03.201Z,0.94
2018-03-01T19:38:32.110Z,0.88
2018-03-01T19:41:01.377Z,1.00
2018-03-01T19:43:29.760Z,0.79
2018-03-01T19:45:58.264Z,0.88
2018-03-01T19:48:27.464Z,0.89
2018-03-01T19:50:56.809Z,0.81
2018-03-01T19:53:27.156Z,0.87
2018-03-01T19:55:57.019Z,0.79
2018-03-01T19:58:25.455Z,0.71
2018-03-01T20:00:55.548Z,0.73
2018-03-01T20:03:24.888Z,0.79
2018-03-01T20:05:54.147Z,0.63
2018-03-01T20:08:22.503Z,0.58
2018-03-01T20:10:52.187Z,0.60
2018-03-01T20:13:20.553Z,0.65
2018-03-01T20:15:49.166Z,0.57
2018-03-01T20:18:18.106Z,0.58
2018-03-01T20:20:46.540Z,0.51
2018-03-01T20:23:15.588Z,0.41
2018-03-01T20:25:43.983Z,0.46
2018-03-01T20:28:14.909Z,0.41
2018-03-01T20:30:43.296Z,0.42
2018-03-01T20:33:11.931Z,0.39
2018-03-01T20:35:40.788Z,0.27
2018-03-01T20:38:10.519Z,0.30
2018-03-01T20:40:39.324Z,0.38
2018-03-01T20:43:08.206Z,0.29
2018-03-01T20:45:37.291Z,0.37
2018-03-01T20:48:06.402Z,0.42
2018-03-01T20:50:35.245Z,0.41
2018-03-01T20:53:04.484Z,0.40
2018-03-01T20:55:34.042Z,0.42
2018-03-01T20:58:02.808Z,0.39
2018-03-01T21:00:31.154Z,0.46
2018-03-01T21:02:59.691Z,0.37
2018-03-01T21:05:29.026Z,0.37
2018-03-01T21:07:58.947Z,0.43
2018-03-01T21:10:27.486Z,0.45
2018-03-01T21:12:56.220Z,0.33
2018-03-01T21:15:25.681Z,0.18
2018-03-01T21:17:54.082Z,0.26
2018-03-01T21:20:22.358Z,0.16
2018-03-01T21:22:50.733Z,0.16
2018-03-01T21:25:19.028Z,0.11
2018-03-01T21:27:47.581Z,0.20
2018-03-01T21:30:15.927Z,0.10
2018-03-01T21:32:45.285Z,0.00
2018-03-01T21:35:13.596Z,-0.10
2018-03-01T21:37:42.445Z,-0.02
2018-03-01T21:40:10.769Z,-0.04
2018-03-01T21:42:39.930Z,-0.02
2018-03-01T21:45:08.205Z,-0.12
2018-03-01T21:47:36.794Z,-0.08
2018-03-01T21:50:05.173Z,-0.03
2018-03-01T21:52:33.526Z,-0.12
2018-03-01T21:55:02.098Z,-0.23
2018-03-01T21:57:30.375Z,-0.35
2018-03-01T21:59:58.657Z,-0.38
2018-03-01T22:02:27.006Z,-0.32
2018-03-01T22:04:55.389Z,-0.24
2018-03-01T22:07:23.690Z,-0.22
2018-03-01T22:09:52.019Z,-0.18
2018-03-01T22:12:22.248Z,-0.18
2018-03-01T22:14:50.505Z,-0.30
2018-03-01T22:17:19.675Z,-0.27
2018-03-01T22:19:47.974Z,-0.22
2018-03-01T22:22:17.026Z,-0.24
2018-03-01T22:24:46.205Z,-0.17
2018-03-01T22:27:15.468Z,-0.29
2018-03-01T22:29:46.380Z,-0.20
2018-03-01T22:32:15.473Z,-0.27
2018-03-01T22:34:44.542Z,-0.22
2018-03-01T22:37:12.907Z,-0.20
2018-03-01T22:39:41.248Z,-0.54
2018-03-01T22:42:10.310Z,-0.37
2018-03-01T22:44:38.625Z,-0.35
2018-03-01T22:47:06.956Z,-0.34
2018-03-01T22:49:35.271Z,-0.61
2018-03-01T22:52:04.314Z,-0.68
2018-03-01T22:54:32.709Z,-0.64
2018-03-01T22:57:01.182Z,-0.65
2018-03-01T22:59:29.451Z,-0.62
2018-03-01T23:01:57.755Z,-0.59
2018-03-01T23:04:26.051Z,-0.64
2018-03-01T23:06:55.196Z,-0.54
2018-03-01T23:09:24.403Z,-0.53
2018-03-01T23:11:52.787Z,-0.56
2018-03-01T23:14:21.103Z,-0.57
2018-03-01T23:16:49.378Z,-0.54
2018-03-01T23:19:17.705Z,-0.53
2018-03-01T23:21:46.055Z,-0.58
2018-03-01T23:24:14.465Z,-0.58
2018-03-01T23:26:42.804Z,-0.63
2018-03-01T23:29:11.060Z,-0.65
2018-03-01T23:31:39.338Z,-0.69
2018-03-01T23:34:07.765Z,-0.73
2018-03-01T23:36:36.044Z,-0.86
2018-03-01T23:39:04.319Z,-0.88
2018-03-01T23:41:32.926Z,-0.99
2018-03-01T23:44:01.198Z,-1.00
2018-03-01T23:46:30.239Z,-0.87
2018-03-01T23:48:58.552Z,-0.98
2018-03-01T23:51:27.225Z,-1.08
2018-03-01T23:53:55.499Z,-1.15
2018-03-01T23:56:23.764Z,-0.96
2018-03-01T23:58:52.046Z,-0.86
